createdAt,value
2023-08-17T00:09:25.521Z,0.103
2023-08-17T00:19:25.479Z,0.102
2023-08-17T00:49:25.434Z,0.102
2023-08-17T00:59:25.439Z,0.102
2023-08-17T01:09:25.344Z,0.101
2023-08-17T01:19:25.385Z,0.101
2023-08-17T01:29:25.406Z,0.101
2023-08-17T01:39:25.364Z,0.101
2023-08-17T01:49:25.359Z,0.101
2023-08-17T01:59:25.382Z,0.101
2023-08-17T02:09:26.515Z,0.101
2023-08-17T02:19:25.277Z,0.101
2023-08-17T02:29:25.070Z,0.101
2023-08-17T02:39:25.242Z,0.101
2023-08-17T02:49:25.280Z,0.101
2023-08-17T02:59:25.202Z,0.101
2023-08-17T03:09:25.203Z,0.101
2023-08-17T03:19:24.966Z,0.101
2023-08-17T03:29:25.185Z,0.101
2023-08-17T03:39:25.120Z,0.1
2023-08-17T03:49:25.059Z,0.1
2023-08-17T04:09:25.090Z,0.1
2023-08-17T04:19:25.076Z,0.1
2023-08-17T04:29:25.071Z,0.1
2023-08-17T04:39:25.177Z,0.1
2023-08-17T04:49:25.012Z,0.1
2023-08-17T05:09:24.989Z,0.1
2023-08-17T05:19:24.762Z,0.099
2023-08-17T05:29:25.040Z,0.099
2023-08-17T05:49:24.918Z,0.099
2023-08-17T05:59:24.964Z,0.099
2023-08-17T06:09:24.712Z,0.099
2023-08-17T06:29:24.653Z,0.099
2023-08-17T06:39:24.825Z,0.099
2023-08-17T06:59:24.791Z,0.099
2023-08-17T07:09:24.835Z,0.099
2023-08-17T07:19:35.749Z,0.099
2023-08-17T07:39:24.725Z,0.099
2023-08-17T07:49:31.895Z,0.099
2023-08-17T07:59:24.640Z,0.099
2023-08-17T08:09:24.665Z,0.099
2023-08-17T08:19:24.650Z,0.099
2023-08-17T08:39:24.624Z,0.099
2023-08-17T08:49:24.608Z,0.099
2023-08-17T09:09:29.421Z,0.098
2023-08-17T09:19:24.560Z,0.098
2023-08-17T09:29:24.601Z,0.098
2023-08-17T09:39:24.592Z,0.098
2023-08-17T09:49:24.482Z,0.098
2023-08-17T10:09:29.690Z,0.098
2023-08-17T10:19:24.372Z,0.098
2023-08-17T10:29:24.210Z,0.098
2023-08-17T10:39:28.250Z,0.098
2023-08-17T10:49:24.391Z,0.098
2023-08-17T10:59:24.353Z,0.098
2023-08-17T11:09:24.122Z,0.097
2023-08-17T11:19:24.374Z,0.097
2023-08-17T11:39:24.310Z,0.097
2023-08-17T11:49:24.278Z,0.097
2023-08-17T12:09:24.247Z,0.097
2023-08-17T12:19:24.294Z,0.097
2023-08-17T12:29:24.205Z,0.097
2023-08-17T12:39:24.168Z,0.096
2023-08-17T12:59:24.238Z,0.096
2023-08-17T13:09:24.155Z,0.096
2023-08-17T13:19:24.132Z,0.096
2023-08-17T13:29:24.075Z,0.096
2023-08-17T13:39:24.073Z,0.095
2023-08-17T13:49:24.057Z,0.095
2023-08-17T13:59:24.033Z,0.095
2023-08-17T14:09:24.019Z,0.095
2023-08-17T14:19:24.043Z,0.095
2023-08-17T14:29:24.251Z,0.095
2023-08-17T14:39:23.955Z,0.095
2023-08-17T14:49:26.862Z,0.095
2023-08-17T14:59:23.956Z,0.095
2023-08-17T15:09:23.909Z,0.095
2023-08-17T15:19:38.532Z,0.095
2023-08-17T15:29:23.889Z,0.095
2023-08-17T15:39:23.843Z,0.095
2023-08-17T15:49:23.767Z,0.095
2023-08-17T15:59:23.808Z,0.095
2023-08-17T16:09:23.780Z,0.095
2023-08-17T16:19:23.793Z,0.095
2023-08-17T16:29:23.786Z,0.095
2023-08-17T16:39:23.701Z,0.095
2023-08-17T16:49:29.908Z,0.095
2023-08-17T16:59:23.739Z,0.094
2023-08-17T17:09:23.675Z,0.094
2023-08-17T17:19:23.697Z,0.094
2023-08-17T17:39:23.632Z,0.094
2023-08-17T17:49:23.643Z,0.094
2023-08-17T17:59:23.613Z,0.094
2023-08-17T18:09:23.656Z,0.093
2023-08-17T18:19:23.579Z,0.093
2023-08-17T18:29:23.506Z,0.093
2023-08-17T18:39:23.322Z,0.093
2023-08-17T18:49:23.465Z,0.093
2023-08-17T18:59:23.802Z,0.093
2023-08-17T19:09:23.512Z,0.093
2023-08-17T19:19:23.513Z,0.093
2023-08-17T19:39:23.437Z,0.093
2023-08-17T19:49:23.448Z,0.093
2023-08-17T19:59:23.388Z,0.093
2023-08-17T20:09:23.327Z,0.092
2023-08-17T20:19:23.401Z,0.092
2023-08-17T20:29:23.374Z,0.092
2023-08-17T20:39:23.289Z,0.093
2023-08-17T20:49:23.302Z,0.092
2023-08-17T20:59:23.291Z,0.092
2023-08-17T21:09:23.274Z,0.092
2023-08-17T21:19:23.307Z,0.092
2023-08-17T21:29:23.221Z,0.092
2023-08-17T21:39:23.216Z,0.092
2023-08-17T21:49:23.207Z,0.092
2023-08-17T21:59:23.142Z,0.092
2023-08-17T22:19:23.171Z,0.092
2023-08-17T22:29:23.060Z,0.092
2023-08-17T22:39:23.138Z,0.092
2023-08-17T22:49:23.086Z,0.092
2023-08-17T22:59:23.008Z,0.092
2023-08-17T23:09:22.995Z,0.092
2023-08-17T23:19:23.033Z,0.091
2023-08-17T23:29:22.955Z,0.091
2023-08-17T23:39:23.056Z,0.091
2023-08-17T23:49:22.787Z,0.091
